Alpine Maya — VRGM6 — position and weather

sailwx.info

Track history (hours):
 
Tides and Currents Weather Stations Pressure Air Temp Water Temp Dewpoint Dewpoint Depression Visibility Wind Speed Wind Dir Waves Ship Positions

Alpine Maya

Last reported at 2018-Apr-30 16:23 UTC. Time now 2018-Jun-21 23:52 UTC.
Position N 21°36' E 066°17'.
Warning: this ship's position is 52 days out of date.

Length 183 m; draft 7.8 m.

Type: Ship. MMSI: 477733800.

Date/timePositionNaut miles runAvg speedWind from/ knotsBaromVisibWave heightAir tempDewpointWater temp
2018-Apr-30 16:23N 21°36' E 066°17'13913.1
2018-Apr-30 05:45N 19°45' E 067°46'413.6
2018-Apr-30 05:26N 19°41' E 067°48'613.5
2018-Apr-30 05:00N 19°37' E 067°52'1013.6
2018-Apr-30 04:18N 19°29' E 067°58'413.9
2018-Apr-30 03:59N 19°25' E 068°00'815.2
2018-Apr-30 03:30N 19°19' E 068°05'715.1
2018-Apr-30 03:00N 19°13' E 068°09'814.4
2018-Apr-30 02:28N 19°07' E 068°14'714.4
2018-Apr-30 02:00N 19°02' E 068°19'4113.8
2018-Apr-29 23:04N 18°30' E 068°45'113.4
2018-Apr-29 22:58N 18°29' E 068°46'613.3
2018-Apr-29 22:30N 18°24' E 068°50'713.5
2018-Apr-29 22:00N 18°18' E 068°54'913.5
2018-Apr-29 21:22N 18°11' E 068°60'513.5
2018-Apr-29 20:59N 18°07' E 069°03'813.4
2018-Apr-29 20:26N 18°01' E 069°08'813.3
2018-Apr-29 19:48N 17°55' E 069°13'413.3
2018-Apr-29 19:30N 17°52' E 069°16'813.4
2018-Apr-29 18:56N 17°46' E 069°21'613.5
2018-Apr-29 18:27N 17°41' E 069°25'613.4
2018-Apr-29 17:59N 17°35' E 069°29'1513.6
2018-Apr-29 16:52N 17°23' E 069°38'513.8
2018-Apr-29 16:30N 17°19' E 069°41'713.5
2018-Apr-29 15:57N 17°13' E 069°46'613.3
2018-Apr-29 15:30N 17°08' E 069°49'713.3
2018-Apr-29 15:00N 17°03' E 069°53'713.4
2018-Apr-29 14:30N 16°57' E 069°57'813.3
2018-Apr-29 13:55N 16°51' E 070°02'913.5
2018-Apr-29 13:16N 16°45' E 070°08'413.7
2018-Apr-29 12:57N 16°41' E 070°11'713.6
2018-Apr-29 12:28N 16°36' E 070°15'613.4
2018-Apr-29 12:00N 16°31' E 070°19'913.3
2018-Apr-29 11:20N 16°24' E 070°24'513.5
2018-Apr-29 10:59N 16°20' E 070°27'713.5
2018-Apr-29 10:28N 16°14' E 070°32'613.5
2018-Apr-29 10:00N 16°09' E 070°36'2213.4
2018-Apr-29 08:23N 15°52' E 070°49'513.2
2018-Apr-29 07:58N 15°47' E 070°52'613.3
2018-Apr-29 07:30N 15°42' E 070°56'713.3
2018-Apr-29 06:59N 15°37' E 071°00'713.3
2018-Apr-29 06:27N 15°31' E 071°05'913.2
2018-Apr-29 05:46N 15°24' E 071°10'413.1
2018-Apr-29 05:27N 15°21' E 071°13'713.1
2018-Apr-29 04:56N 15°15' E 071°17'713.0
2018-Apr-29 04:26N 15°10' E 071°21'613.0
2018-Apr-29 03:56N 15°05' E 071°25'613.1
2018-Apr-29 03:29N 14°60' E 071°29'613.2
2018-Apr-29 03:00N 14°55' E 071°33'713.1
2018-Apr-29 02:29N 14°50' E 071°37'913.4
2018-Apr-29 01:49N 14°43' E 071°43'1314.0
2018-Apr-29 00:55N 14°33' E 071°51'3413.7
2018-Apr-28 22:28N 14°06' E 072°11'1813.8
2018-Apr-28 21:10N 13°51' E 072°22'414.0
2018-Apr-28 20:52N 13°48' E 072°25'513.9
2018-Apr-28 20:30N 13°44' E 072°28'713.9
2018-Apr-28 19:59N 13°38' E 072°33'713.7
2018-Apr-28 19:26N 13°32' E 072°38'613.8
2018-Apr-28 19:00N 13°27' E 072°41'914.0
2018-Apr-28 18:22N 13°20' E 072°47'514.2
2018-Apr-28 17:59N 13°16' E 072°50'713.9
2018-Apr-28 17:30N 13°11' E 072°54'713.8
2018-Apr-28 17:00N 13°05' E 072°58'1013.6
2018-Apr-28 16:16N 12°57' E 073°04'413.6
2018-Apr-28 15:59N 12°54' E 073°06'3113.7
2018-Apr-28 13:43N 12°29' E 073°26'313.9
2018-Apr-28 13:30N 12°27' E 073°28'913.8
2018-Apr-28 12:53N 12°20' E 073°33'513.6
2018-Apr-28 12:30N 12°16' E 073°36'  
Track history (hours):
 
Tides and Currents Weather Stations Pressure Air Temp Water Temp Dewpoint Dewpoint Depression Visibility Wind Speed Wind Dir Waves Ship Positions

Alpine Maya

Last reported at 2018-Apr-30 16:23 UTC. Time now 2018-Jun-21 23:52 UTC.
Position N 21°36' E 066°17'.
Warning: this ship's position is 52 days out of date.

Length 183 m; draft 7.8 m.

Type: Ship. MMSI: 477733800.

Date/timePositionNaut miles runAvg speedWind from/ knotsBaromVisibWave heightAir tempDewpointWater temp
2018-Apr-30 16:23N 21°36' E 066°17'13913.1
2018-Apr-30 05:45N 19°45' E 067°46'413.6
2018-Apr-30 05:26N 19°41' E 067°48'613.5
2018-Apr-30 05:00N 19°37' E 067°52'1013.6
2018-Apr-30 04:18N 19°29' E 067°58'413.9
2018-Apr-30 03:59N 19°25' E 068°00'815.2
2018-Apr-30 03:30N 19°19' E 068°05'715.1
2018-Apr-30 03:00N 19°13' E 068°09'814.4
2018-Apr-30 02:28N 19°07' E 068°14'714.4
2018-Apr-30 02:00N 19°02' E 068°19'4113.8
2018-Apr-29 23:04N 18°30' E 068°45'113.4
2018-Apr-29 22:58N 18°29' E 068°46'613.3
2018-Apr-29 22:30N 18°24' E 068°50'713.5
2018-Apr-29 22:00N 18°18' E 068°54'913.5
2018-Apr-29 21:22N 18°11' E 068°60'513.5
2018-Apr-29 20:59N 18°07' E 069°03'813.4
2018-Apr-29 20:26N 18°01' E 069°08'813.3
2018-Apr-29 19:48N 17°55' E 069°13'413.3
2018-Apr-29 19:30N 17°52' E 069°16'813.4
2018-Apr-29 18:56N 17°46' E 069°21'613.5
2018-Apr-29 18:27N 17°41' E 069°25'613.4
2018-Apr-29 17:59N 17°35' E 069°29'1513.6
2018-Apr-29 16:52N 17°23' E 069°38'513.8
2018-Apr-29 16:30N 17°19' E 069°41'713.5
2018-Apr-29 15:57N 17°13' E 069°46'613.3
2018-Apr-29 15:30N 17°08' E 069°49'713.3
2018-Apr-29 15:00N 17°03' E 069°53'713.4
2018-Apr-29 14:30N 16°57' E 069°57'813.3
2018-Apr-29 13:55N 16°51' E 070°02'913.5
2018-Apr-29 13:16N 16°45' E 070°08'413.7
2018-Apr-29 12:57N 16°41' E 070°11'713.6
2018-Apr-29 12:28N 16°36' E 070°15'613.4
2018-Apr-29 12:00N 16°31' E 070°19'913.3
2018-Apr-29 11:20N 16°24' E 070°24'513.5
2018-Apr-29 10:59N 16°20' E 070°27'713.5
2018-Apr-29 10:28N 16°14' E 070°32'613.5
2018-Apr-29 10:00N 16°09' E 070°36'2213.4
2018-Apr-29 08:23N 15°52' E 070°49'513.2
2018-Apr-29 07:58N 15°47' E 070°52'613.3
2018-Apr-29 07:30N 15°42' E 070°56'713.3
2018-Apr-29 06:59N 15°37' E 071°00'713.3
2018-Apr-29 06:27N 15°31' E 071°05'913.2
2018-Apr-29 05:46N 15°24' E 071°10'413.1
2018-Apr-29 05:27N 15°21' E 071°13'713.1
2018-Apr-29 04:56N 15°15' E 071°17'713.0
2018-Apr-29 04:26N 15°10' E 071°21'613.0
2018-Apr-29 03:56N 15°05' E 071°25'613.1
2018-Apr-29 03:29N 14°60' E 071°29'613.2
2018-Apr-29 03:00N 14°55' E 071°33'713.1
2018-Apr-29 02:29N 14°50' E 071°37'913.4
2018-Apr-29 01:49N 14°43' E 071°43'1314.0
2018-Apr-29 00:55N 14°33' E 071°51'3413.7
2018-Apr-28 22:28N 14°06' E 072°11'1813.8
2018-Apr-28 21:10N 13°51' E 072°22'414.0
2018-Apr-28 20:52N 13°48' E 072°25'513.9
2018-Apr-28 20:30N 13°44' E 072°28'713.9
2018-Apr-28 19:59N 13°38' E 072°33'713.7
2018-Apr-28 19:26N 13°32' E 072°38'613.8
2018-Apr-28 19:00N 13°27' E 072°41'914.0
2018-Apr-28 18:22N 13°20' E 072°47'514.2
2018-Apr-28 17:59N 13°16' E 072°50'713.9
2018-Apr-28 17:30N 13°11' E 072°54'713.8
2018-Apr-28 17:00N 13°05' E 072°58'1013.6
2018-Apr-28 16:16N 12°57' E 073°04'413.6
2018-Apr-28 15:59N 12°54' E 073°06'3113.7
2018-Apr-28 13:43N 12°29' E 073°26'313.9
2018-Apr-28 13:30N 12°27' E 073°28'913.8
2018-Apr-28 12:53N 12°20' E 073°33'513.6
2018-Apr-28 12:30N 12°16' E 073°36'  

Dump ship's entire track history